Time;durP1;ratioP1;P1;durP2;ratioP2;P2;SDS_P1;SDS_P2;PMS_P1;PMS_P2;Temp;Humidity;BMP_temperature;BMP_pressure;BME280_temperature;BME280_humidity;BME280_pressure;Samples;Min_cycle;Max_cycle;Signal;HPM_P1;HPM_P2
2021/03/04 00:00:44;;;;;;;9.07;3.20;;;7.60;53.90;;;;;;4972759;28;20027;-83
2021/03/04 00:03:13;;;;;;;7.13;2.77;;;7.60;54.20;;;;;;4977332;28;20018;-83
2021/03/04 00:05:39;;;;;;;5.43;2.63;;;7.60;54.30;;;;;;4971507;28;20027;-83
2021/03/04 00:08:06;;;;;;;7.13;2.97;;;7.60;54.30;;;;;;4991790;28;20077;-83
2021/03/04 00:10:32;;;;;;;8.30;3.30;;;7.60;54.30;;;;;;4960359;28;20031;-83
2021/03/04 00:12:59;;;;;;;6.47;2.73;;;7.60;54.30;;;;;;4979531;28;20072;-83
2021/03/04 00:15:28;;;;;;;7.23;3.30;;;7.60;54.20;;;;;;4994463;28;20389;-83
2021/03/04 00:17:54;;;;;;;9.10;3.93;;;7.50;54.20;;;;;;4963122;28;20030;-83
2021/03/04 00:20:29;;;;;;;8.47;4.03;;;7.50;54.10;;;;;;4992764;28;20105;-83
2021/03/04 00:22:54;;;;;;;6.93;3.30;;;7.50;54.30;;;;;;4983218;28;20026;-83
2021/03/04 00:25:23;;;;;;;6.37;2.47;;;7.50;54.30;;;;;;4969203;28;20354;-83
2021/03/04 00:27:49;;;;;;;4.47;2.10;;;7.40;54.40;;;;;;4966563;28;20027;-83
2021/03/04 00:30:17;;;;;;;5.03;1.77;;;7.40;54.60;;;;;;4982267;28;20029;-83
2021/03/04 00:32:43;;;;;;;6.93;2.00;;;7.40;54.60;;;;;;4973515;28;20036;-83
2021/03/04 00:35:09;;;;;;;4.70;1.70;;;7.40;54.60;;;;;;4966192;28;20537;-83
2021/03/04 00:37:36;;;;;;;4.40;2.00;;;7.40;54.50;;;;;;4975219;28;20032;-83
2021/03/04 00:40:06;;;;;;;6.83;3.40;;;7.40;54.40;;;;;;4980626;28;20033;-83
2021/03/04 00:42:32;;;;;;;5.10;3.47;;;7.30;54.60;;;;;;5011693;28;20058;-83
2021/03/04 00:44:57;;;;;;;5.90;2.30;;;7.30;54.90;;;;;;4985480;28;20038;-83
2021/03/04 00:47:23;;;;;;;5.93;2.13;;;7.20;54.80;;;;;;4962765;28;20056;-83
2021/03/04 00:49:49;;;;;;;6.00;1.90;;;7.20;55.00;;;;;;4978395;28;20038;-83
2021/03/04 00:52:14;;;;;;;3.20;1.60;;;7.20;55.10;;;;;;5000660;28;20161;-83
2021/03/04 00:54:40;;;;;;;3.87;1.43;;;7.20;55.20;;;;;;4979689;28;20042;-83
2021/03/04 00:57:06;;;;;;;5.07;1.20;;;7.10;55.10;;;;;;4990897;28;20026;-83
2021/03/04 00:59:32;;;;;;;2.63;1.77;;;7.10;55.30;;;;;;4976396;28;20034;-83
2021/03/04 01:01:57;;;;;;;3.57;1.20;;;7.10;55.20;;;;;;4978065;28;20099;-84
2021/03/04 01:04:23;;;;;;;2.87;1.47;;;7.00;55.30;;;;;;4990190;28;20109;-83
2021/03/04 01:06:49;;;;;;;4.33;1.57;;;7.00;55.50;;;;;;4982889;28;20029;-83
2021/03/04 01:09:14;;;;;;;5.00;1.47;;;7.00;55.60;;;;;;4992493;28;20026;-83
2021/03/04 01:11:40;;;;;;;4.27;1.30;;;6.90;55.50;;;;;;5014184;28;20022;-83
2021/03/04 01:14:06;;;;;;;3.30;1.00;;;6.90;55.60;;;;;;4982008;28;20046;-83
2021/03/04 01:16:32;;;;;;;2.73;1.00;;;6.90;55.60;;;;;;4987808;28;20037;-83
2021/03/04 01:18:58;;;;;;;4.07;1.20;;;6.90;55.60;;;;;;4988832;28;20027;-83
2021/03/04 01:21:24;;;;;;;4.83;1.00;;;7.00;55.50;;;;;;4997248;28;20077;-83
2021/03/04 01:23:50;;;;;;;4.23;1.97;;;7.00;55.30;;;;;;4975357;28;20090;-83
2021/03/04 01:26:15;;;;;;;4.80;2.07;;;7.00;55.30;;;;;;4983397;28;20604;-83
2021/03/04 01:28:41;;;;;;;4.70;1.80;;;6.90;55.50;;;;;;4997323;28;20032;-83
2021/03/04 01:31:07;;;;;;;8.60;1.90;;;6.90;55.40;;;;;;4976776;28;20180;-83
2021/03/04 01:33:32;;;;;;;5.17;1.87;;;6.90;55.50;;;;;;4988774;28;20090;-83
2021/03/04 01:35:58;;;;;;;5.83;1.77;;;6.90;55.60;;;;;;4969055;28;20684;-83
2021/03/04 01:38:24;;;;;;;2.70;1.30;;;6.90;55.70;;;;;;4975085;28;20030;-83
2021/03/04 01:40:50;;;;;;;3.43;1.37;;;6.90;55.80;;;;;;4992416;28;20382;-84
2021/03/04 01:43:15;;;;;;;3.93;1.67;;;6.90;55.70;;;;;;4970297;28;20851;-83
2021/03/04 01:45:41;;;;;;;3.03;1.40;;;6.90;55.70;;;;;;4991200;28;20050;-83
2021/03/04 01:48:07;;;;;;;8.70;2.33;;;6.80;55.80;;;;;;5024526;28;20364;-83
2021/03/04 01:50:34;;;;;;;5.40;1.70;;;6.80;55.80;;;;;;4975204;28;20026;-83
2021/03/04 01:53:00;;;;;;;3.97;1.27;;;6.80;55.80;;;;;;4972792;28;20110;-83
2021/03/04 01:55:28;;;;;;;3.90;1.10;;;6.80;55.80;;;;;;5011282;28;20049;-83
2021/03/04 01:57:56;;;;;;;6.67;1.40;;;6.80;55.70;;;;;;4979824;28;20066;-83
2021/03/04 02:00:22;;;;;;;5.37;1.00;;;6.80;55.70;;;;;;4983112;28;20054;-83
2021/03/04 02:02:48;;;;;;;4.23;1.10;;;6.70;55.70;;;;;;4979353;28;20027;-83
2021/03/04 02:05:16;;;;;;;4.60;1.20;;;6.70;55.70;;;;;;4977570;28;20141;-83
2021/03/04 02:07:53;;;;;;;4.97;1.47;;;6.70;55.70;;;;;;4968961;28;20566;-83
2021/03/04 02:10:44;;;;;;;3.63;2.00;;;6.70;55.70;;;;;;4983079;28;20035;-83
2021/03/04 02:13:49;;;;;;;3.57;1.63;;;6.60;56.00;;;;;;4993642;28;20050;-83
2021/03/04 02:16:22;;;;;;;3.57;1.67;;;6.60;56.00;;;;;;4990579;28;20088;-83
2021/03/04 02:18:59;;;;;;;3.63;1.60;;;6.60;56.00;;;;;;4982437;28;20037;-83
2021/03/04 02:21:46;;;;;;;4.77;2.70;;;6.60;56.10;;;;;;4973915;28;20109;-83
2021/03/04 02:24:18;;;;;;;6.63;2.93;;;6.60;56.20;;;;;;4987890;28;20028;-83
2021/03/04 02:27:05;;;;;;;4.47;2.70;;;6.60;56.10;;;;;;5018700;28;20066;-83
2021/03/04 02:29:36;;;;;;;5.93;2.47;;;6.50;56.30;;;;;;4984988;28;20326;-83
2021/03/04 02:32:03;;;;;;;5.60;2.53;;;6.40;56.40;;;;;;4976524;28;20026;-83
2021/03/04 02:34:29;;;;;;;5.13;1.77;;;6.50;56.50;;;;;;4978326;28;20056;-83
2021/03/04 02:36:57;;;;;;;4.13;1.83;;;6.50;56.50;;;;;;4981424;28;20458;-83
2021/03/04 02:39:25;;;;;;;5.97;1.60;;;6.50;56.30;;;;;;4980225;28;20021;-83
2021/03/04 02:41:52;;;;;;;11.30;1.70;;;6.50;56.30;;;;;;4978335;28;20030;-83
2021/03/04 02:44:21;;;;;;;3.57;1.80;;;6.40;56.30;;;;;;4979170;28;20214;-83
2021/03/04 02:46:48;;;;;;;5.90;1.70;;;6.40;56.30;;;;;;4970811;28;20062;-83
2021/03/04 02:49:14;;;;;;;3.97;2.30;;;6.40;56.20;;;;;;4996892;28;20034;-83
2021/03/04 02:51:41;;;;;;;10.17;3.00;;;6.40;56.40;;;;;;4995410;28;20030;-83
2021/03/04 02:54:09;;;;;;;9.23;4.17;;;6.40;56.30;;;;;;5000014;28;20769;-83
2021/03/04 02:56:37;;;;;;;9.00;3.07;;;6.30;56.50;;;;;;4983327;28;20027;-83
2021/03/04 02:59:06;;;;;;;3.00;1.70;;;6.30;56.60;;;;;;4970547;28;20103;-83
2021/03/04 03:01:32;;;;;;;6.30;1.93;;;6.30;56.70;;;;;;4998734;28;20102;-83
2021/03/04 03:03:59;;;;;;;3.93;1.57;;;6.10;56.70;;;;;;4986365;28;20084;-83
2021/03/04 03:06:27;;;;;;;2.73;1.53;;;6.10;57.20;;;;;;4979906;28;20026;-83
2021/03/04 03:08:54;;;;;;;6.03;1.90;;;6.10;57.10;;;;;;4987720;28;20076;-83
2021/03/04 03:11:20;;;;;;;8.73;1.80;;;6.20;57.10;;;;;;4979352;28;20023;-83
2021/03/04 03:13:54;;;;;;;4.20;1.90;;;6.20;56.90;;;;;;5011580;28;20050;-83
2021/03/04 03:16:20;;;;;;;4.80;1.60;;;6.20;57.00;;;;;;4979174;28;20041;-83
2021/03/04 03:18:47;;;;;;;7.63;2.00;;;6.20;56.80;;;;;;4975728;28;20038;-83
2021/03/04 03:21:13;;;;;;;6.10;2.43;;;6.10;57.10;;;;;;4990668;28;20068;-83
2021/03/04 03:23:38;;;;;;;2.40;1.37;;;6.20;57.10;;;;;;5007608;28;22102;-83
2021/03/04 03:26:04;;;;;;;5.63;1.70;;;6.30;57.00;;;;;;4964987;28;20022;-83
2021/03/04 03:28:30;;;;;;;5.97;2.30;;;6.30;56.70;;;;;;4975350;28;20030;-83
2021/03/04 03:30:56;;;;;;;3.37;2.03;;;6.20;56.80;;;;;;4999838;28;20404;-83
2021/03/04 03:33:23;;;;;;;4.03;1.30;;;6.30;56.80;;;;;;4980528;28;20037;-84
2021/03/04 03:35:49;;;;;;;4.07;1.30;;;6.30;56.80;;;;;;4969124;28;20121;-83
2021/03/04 03:38:16;;;;;;;6.57;1.40;;;6.30;56.80;;;;;;4982786;28;20026;-83
2021/03/04 03:40:49;;;;;;;5.60;1.57;;;6.20;56.60;;;;;;4978766;28;20115;-83
2021/03/04 03:43:15;;;;;;;;;;;6.20;56.70;;;;;;4975927;28;20027;-83
2021/03/04 03:45:46;;;;;;;6.67;1.57;;;6.20;56.80;;;;;;4987069;28;20298;-83
2021/03/04 03:48:14;;;;;;;5.63;1.53;;;6.20;56.60;;;;;;4985503;28;20512;-83
2021/03/04 03:50:42;;;;;;;4.63;2.30;;;6.10;56.80;;;;;;4995815;28;20030;-83
2021/03/04 03:53:08;;;;;;;5.97;2.60;;;6.20;57.00;;;;;;4981785;28;20026;-83
2021/03/04 03:55:34;;;;;;;8.03;2.73;;;6.20;57.00;;;;;;4980347;28;20746;-83
2021/03/04 03:58:01;;;;;;;5.30;2.80;;;6.20;57.00;;;;;;4966423;28;20050;-83
2021/03/04 04:00:28;;;;;;;5.23;2.90;;;6.20;56.80;;;;;;4976750;28;20030;-83
2021/03/04 04:02:59;;;;;;;8.03;2.90;;;6.20;56.80;;;;;;4997642;28;20026;-83
2021/03/04 04:05:26;;;;;;;9.10;2.57;;;6.30;56.90;;;;;;4983765;28;20430;-83
2021/03/04 04:07:56;;;;;;;6.57;2.10;;;6.30;56.60;;;;;;4984347;28;20180;-83
2021/03/04 04:10:28;;;;;;;5.33;2.00;;;6.30;56.60;;;;;;4982308;28;20029;-83
2021/03/04 04:12:54;;;;;;;4.50;1.90;;;6.30;56.60;;;;;;4982347;28;20311;-84
2021/03/04 04:15:20;;;;;;;9.00;1.60;;;6.30;56.80;;;;;;4983693;28;20129;-84
2021/03/04 04:17:47;;;;;;;7.40;2.20;;;6.30;56.90;;;;;;4976831;28;20050;-83
2021/03/04 04:20:16;;;;;;;8.23;2.67;;;6.30;56.90;;;;;;4978012;28;20540;-83
2021/03/04 04:22:42;;;;;;;12.70;4.30;;;6.20;56.80;;;;;;4977633;28;20101;-83
2021/03/04 04:25:09;;;;;;;8.20;4.77;;;6.20;56.80;;;;;;4978736;28;20034;-83
2021/03/04 04:27:35;;;;;;;9.70;4.57;;;6.20;56.90;;;;;;4985560;28;20492;-83
2021/03/04 04:30:01;;;;;;;8.53;4.27;;;6.30;56.90;;;;;;5005936;28;20034;-83
2021/03/04 04:32:26;;;;;;;7.60;4.23;;;6.30;56.90;;;;;;4973577;28;20039;-83
2021/03/04 04:34:52;;;;;;;6.00;3.53;;;6.30;57.00;;;;;;4964473;28;20048;-83
2021/03/04 04:37:18;;;;;;;7.37;2.90;;;6.30;57.10;;;;;;4991718;28;20437;-83
2021/03/04 04:39:44;;;;;;;8.83;3.40;;;6.30;57.20;;;;;;4987275;28;20054;-83
2021/03/04 04:42:10;;;;;;;12.50;5.40;;;6.20;57.00;;;;;;4979211;28;20035;-83
2021/03/04 04:44:35;;;;;;;11.43;5.20;;;6.20;57.30;;;;;;4992074;28;20077;-83
2021/03/04 04:47:01;;;;;;;13.67;5.00;;;6.20;57.40;;;;;;5006660;28;20034;-83
2021/03/04 04:49:27;;;;;;;7.70;4.10;;;6.20;57.30;;;;;;4980513;28;20033;-83
2021/03/04 04:51:52;;;;;;;8.67;3.47;;;6.20;57.50;;;;;;5009464;28;20030;-83
2021/03/04 04:54:18;;;;;;;9.57;3.37;;;6.20;57.50;;;;;;4977645;28;20113;-83
2021/03/04 04:56:44;;;;;;;5.53;3.00;;;6.20;58.00;;;;;;4978111;28;20717;-83
2021/03/04 04:59:10;;;;;;;5.37;3.00;;;6.20;57.50;;;;;;4998093;28;20026;-83
2021/03/04 05:01:36;;;;;;;7.47;2.77;;;6.10;57.40;;;;;;4998095;28;20058;-84
2021/03/04 05:04:01;;;;;;;7.33;3.63;;;6.10;57.60;;;;;;4995629;28;20030;-84
2021/03/04 05:06:27;;;;;;;9.27;3.30;;;6.10;57.50;;;;;;4989103;28;20156;-83
2021/03/04 05:08:56;;;;;;;12.20;3.87;;;6.10;57.50;;;;;;4980524;28;20621;-83
2021/03/04 05:11:22;;;;;;;10.97;4.80;;;6.10;57.50;;;;;;4977066;28;20034;-83
2021/03/04 05:13:47;;;;;;;11.80;3.93;;;6.10;57.40;;;;;;4994942;28;20054;-83
2021/03/04 05:16:13;;;;;;;6.20;3.60;;;6.10;57.40;;;;;;4984576;28;20064;-83
2021/03/04 05:18:39;;;;;;;6.37;3.87;;;6.10;57.40;;;;;;4976599;28;20026;-83
2021/03/04 05:21:06;;;;;;;9.27;3.83;;;6.10;57.30;;;;;;4977011;28;20054;-83
2021/03/04 05:23:33;;;;;;;7.70;3.57;;;6.10;57.50;;;;;;4992283;28;20464;-83
2021/03/04 05:25:59;;;;;;;11.90;3.50;;;6.00;57.40;;;;;;4999769;28;20477;-83
2021/03/04 05:28:24;;;;;;;8.17;3.23;;;6.00;57.50;;;;;;4999679;28;20029;-83
2021/03/04 05:30:52;;;;;;;7.40;3.93;;;6.00;57.80;;;;;;5013826;28;20018;-83
2021/03/04 05:33:18;;;;;;;11.20;3.53;;;6.00;58.10;;;;;;4969887;28;20022;-83
2021/03/04 05:35:44;;;;;;;8.53;3.53;;;6.10;58.00;;;;;;4986170;28;20035;-83
2021/03/04 05:38:10;;;;;;;10.00;4.40;;;6.20;57.70;;;;;;5000195;28;20105;-83
2021/03/04 05:40:36;;;;;;;13.60;8.40;;;6.10;57.60;;;;;;4980336;28;20445;-83
2021/03/04 05:43:02;;;;;;;9.23;3.27;;;6.10;57.60;;;;;;4994431;28;20034;-83
2021/03/04 05:45:29;;;;;;;9.13;3.93;;;6.10;57.50;;;;;;4972985;28;20501;-83
2021/03/04 05:48:01;;;;;;;7.27;3.57;;;6.10;57.50;;;;;;4997229;28;20064;-83
2021/03/04 05:50:28;;;;;;;8.63;3.53;;;6.10;57.50;;;;;;4988249;28;20030;-83
2021/03/04 05:53:05;;;;;;;5.77;3.27;;;6.10;57.50;;;;;;4991036;28;20026;-83
2021/03/04 05:55:31;;;;;;;9.53;3.03;;;6.10;57.40;;;;;;4984264;28;20137;-83
2021/03/04 05:57:57;;;;;;;9.80;4.73;;;6.10;57.30;;;;;;5005750;28;20057;-83
2021/03/04 06:00:24;;;;;;;14.40;4.57;;;6.10;57.40;;;;;;4996497;28;20041;-83
2021/03/04 06:02:50;;;;;;;8.67;4.70;;;6.10;57.40;;;;;;4973846;28;20057;-83
2021/03/04 06:05:16;;;;;;;11.20;4.63;;;6.10;57.50;;;;;;4977660;28;20080;-83
2021/03/04 06:07:43;;;;;;;10.63;5.07;;;6.10;57.50;;;;;;4991136;28;20030;-83
2021/03/04 06:10:10;;;;;;;13.40;4.50;;;6.10;57.50;;;;;;4984427;28;20035;-83
2021/03/04 06:12:36;;;;;;;8.73;4.57;;;6.10;57.50;;;;;;4987407;28;20041;-83
2021/03/04 06:15:02;;;;;;;14.67;5.90;;;6.10;57.50;;;;;;4999806;28;20409;-83
2021/03/04 06:17:34;;;;;;;16.47;6.30;;;6.10;57.40;;;;;;4976376;28;20033;-84
2021/03/04 06:20:04;;;;;;;16.98;6.32;;;6.10;57.50;;;;;;4972838;28;20370;-84
2021/03/04 06:22:32;;;;;;;14.17;4.93;;;6.20;57.60;;;;;;4966829;28;20031;-83
2021/03/04 06:24:59;;;;;;;13.87;5.30;;;6.20;57.60;;;;;;4978731;28;20022;-83
2021/03/04 06:27:36;;;;;;;17.30;8.67;;;6.20;57.50;;;;;;4976758;28;20033;-83
2021/03/04 06:30:06;;;;;;;17.57;10.60;;;6.20;57.60;;;;;;5002232;28;20500;-83
2021/03/04 06:32:32;;;;;;;12.23;6.20;;;6.20;57.50;;;;;;5011661;28;20138;-85
2021/03/04 06:35:07;;;;;;;14.53;8.20;;;6.20;57.40;;;;;;4978677;28;20038;-82
2021/03/04 06:37:38;;;;;;;12.63;6.53;;;6.30;57.50;;;;;;4995417;28;20077;-82
2021/03/04 06:40:27;;;;;;;18.63;7.90;;;6.30;57.40;;;;;;4980012;28;20068;-82
2021/03/04 06:42:53;;;;;;;15.33;6.47;;;6.30;57.30;;;;;;4981910;28;20026;-82
2021/03/04 06:45:30;;;;;;;17.17;8.57;;;6.30;57.50;;;;;;4977596;28;20049;-82
2021/03/04 06:48:14;;;;;;;15.37;8.10;;;6.30;57.50;;;;;;4975372;28;20030;-83
2021/03/04 06:50:46;;;;;;;13.63;6.93;;;6.40;57.60;;;;;;4989837;28;20034;-86
2021/03/04 06:53:15;;;;;;;29.70;8.25;;;6.40;57.60;;;;;;4972827;28;20022;-82
2021/03/04 06:56:01;;;;;;;19.57;9.70;;;6.50;57.50;;;;;;4975775;28;20038;-83
2021/03/04 06:58:30;;;;;;;18.43;9.30;;;6.50;57.40;;;;;;5002511;28;20561;-82
2021/03/04 07:01:17;;;;;;;24.47;9.20;;;6.60;57.40;;;;;;4982374;28;20033;-82
2021/03/04 07:03:48;;;;;;;14.60;8.10;;;6.60;57.30;;;;;;5012518;28;20033;-82
2021/03/04 07:06:16;;;;;;;13.63;7.70;;;6.60;57.10;;;;;;4979811;28;20050;-82
2021/03/04 07:08:44;;;;;;;21.90;7.73;;;6.60;57.00;;;;;;4974041;28;20702;-82
2021/03/04 07:11:12;;;;;;;18.97;7.23;;;6.60;57.20;;;;;;4998175;28;20075;-82
2021/03/04 07:13:39;;;;;;;18.50;6.73;;;6.60;57.20;;;;;;4981352;28;20058;-82
2021/03/04 07:16:07;;;;;;;18.23;6.33;;;6.70;57.20;;;;;;4984007;28;20030;-82
2021/03/04 07:18:42;;;;;;;18.30;6.37;;;6.70;57.20;;;;;;4985498;28;20021;-82
2021/03/04 07:21:13;;;;;;;17.57;6.83;;;6.70;57.00;;;;;;4997553;28;20041;-82
2021/03/04 07:23:40;;;;;;;15.20;8.03;;;6.80;56.90;;;;;;4988585;28;20027;-82
2021/03/04 07:26:08;;;;;;;14.17;6.17;;;6.80;56.80;;;;;;4975001;28;20026;-82
2021/03/04 07:28:36;;;;;;;13.20;7.40;;;6.90;56.80;;;;;;4978791;28;20026;-82
2021/03/04 07:31:02;;;;;;;17.37;9.40;;;6.90;56.70;;;;;;4978438;28;20030;-82
2021/03/04 07:33:30;;;;;;;14.00;8.20;;;7.00;57.10;;;;;;4993167;28;20388;-82
2021/03/04 07:35:57;;;;;;;18.77;6.93;;;7.00;56.50;;;;;;4988764;28;20034;-82
2021/03/04 07:38:27;;;;;;;11.23;5.70;;;7.10;56.40;;;;;;4964391;28;20098;-82
2021/03/04 07:41:19;;;;;;;14.00;5.70;;;7.00;56.30;;;;;;4977067;28;20085;-82
2021/03/04 07:43:47;;;;;;;15.07;6.03;;;7.10;56.40;;;;;;4973943;28;20034;-82
2021/03/04 07:46:28;;;;;;;17.03;6.80;;;7.10;56.20;;;;;;4975818;28;20033;-83
2021/03/04 07:48:54;;;;;;;15.17;6.33;;;7.20;56.30;;;;;;5003998;28;20065;-83
2021/03/04 07:51:21;;;;;;;13.30;6.37;;;7.20;56.20;;;;;;4978260;28;20021;-83
2021/03/04 07:53:47;;;;;;;20.37;7.20;;;7.30;56.20;;;;;;5004210;28;20088;-82
2021/03/04 07:56:27;;;;;;;19.63;6.33;;;7.40;56.20;;;;;;4986958;28;20071;-82
2021/03/04 07:59:13;;;;;;;18.40;6.20;;;7.40;56.00;;;;;;4978782;28;20038;-82
2021/03/04 08:01:42;;;;;;;19.57;7.17;;;7.50;56.00;;;;;;4970529;28;20034;-82
2021/03/04 08:04:22;;;;;;;18.83;7.67;;;7.50;56.00;;;;;;4976103;28;20022;-82
2021/03/04 08:06:49;;;;;;;14.53;7.00;;;7.50;55.80;;;;;;4976376;28;20037;-82
2021/03/04 08:09:25;;;;;;;18.80;7.17;;;7.50;55.70;;;;;;4984297;28;20067;-83
2021/03/04 08:12:02;;;;;;;20.80;7.13;;;7.50;55.70;;;;;;4976120;28;20038;-83
2021/03/04 08:14:28;;;;;;;19.80;6.83;;;7.60;55.80;;;;;;4974962;28;20061;-83
2021/03/04 08:16:54;;;;;;;17.10;7.10;;;7.60;55.70;;;;;;4959725;28;20046;-83
2021/03/04 08:19:26;;;;;;;16.83;7.60;;;7.50;55.70;;;;;;4972761;28;20035;-83
2021/03/04 08:22:01;;;;;;;54.23;28.60;;;7.60;55.70;;;;;;4961881;28;20057;-83
2021/03/04 08:24:27;;;;;;;31.37;16.13;;;7.60;55.80;;;;;;4977428;28;20027;-83
2021/03/04 08:26:56;;;;;;;25.30;11.93;;;7.60;55.70;;;;;;4956601;28;20034;-83
2021/03/04 08:29:23;;;;;;;19.63;8.17;;;7.60;55.80;;;;;;4974065;28;20026;-83
2021/03/04 08:31:48;;;;;;;24.00;8.60;;;7.60;55.80;;;;;;4957782;28;20063;-83
2021/03/04 08:34:15;;;;;;;14.20;6.63;;;7.70;55.90;;;;;;4953489;28;20034;-83
2021/03/04 08:36:51;;;;;;;15.23;6.67;;;7.70;55.80;;;;;;4957150;28;20046;-83
2021/03/04 08:39:19;;;;;;;15.73;6.40;;;7.70;55.70;;;;;;4978482;28;20034;-83
2021/03/04 08:41:45;;;;;;;12.27;6.27;;;7.70;55.50;;;;;;4960962;28;20049;-83
2021/03/04 08:44:17;;;;;;;23.83;7.97;;;7.70;55.50;;;;;;4965753;28;20038;-83
2021/03/04 08:46:47;;;;;;;16.00;6.47;;;7.70;55.30;;;;;;4962347;28;20567;-83
2021/03/04 08:49:20;;;;;;;16.43;7.03;;;7.80;55.40;;;;;;4965086;28;20038;-83
2021/03/04 08:51:46;;;;;;;17.80;6.90;;;7.80;55.20;;;;;;4986393;28;20030;-83
2021/03/04 08:54:22;;;;;;;19.83;6.67;;;7.90;55.10;;;;;;4960846;28;20389;-83
2021/03/04 08:56:57;;;;;;;18.83;6.63;;;7.80;55.00;;;;;;4980797;28;20053;-83
2021/03/04 08:59:25;;;;;;;15.43;7.00;;;7.80;54.90;;;;;;4974097;28;20103;-83
2021/03/04 09:01:51;;;;;;;18.20;6.70;;;7.80;54.90;;;;;;4956542;28;20086;-83
2021/03/04 09:04:25;;;;;;;13.73;5.70;;;7.80;54.90;;;;;;4957529;28;20023;-83
2021/03/04 09:06:52;;;;;;;16.93;5.97;;;7.80;54.80;;;;;;4987247;28;20082;-83
2021/03/04 09:09:26;;;;;;;22.23;6.43;;;7.90;54.90;;;;;;4955509;28;20043;-82
2021/03/04 09:11:53;;;;;;;16.13;6.30;;;7.90;55.00;;;;;;4965320;28;20029;-83
2021/03/04 09:14:34;;;;;;;18.50;6.97;;;7.90;54.80;;;;;;4970142;28;20051;-83
2021/03/04 09:17:00;;;;;;;18.33;8.10;;;8.00;54.60;;;;;;4977786;28;20100;-82
2021/03/04 09:19:29;;;;;;;15.70;7.77;;;8.10;54.60;;;;;;4963617;28;20027;-83
2021/03/04 09:22:02;;;;;;;16.80;6.87;;;8.20;54.70;;;;;;4984710;28;20046;-83
2021/03/04 09:24:27;;;;;;;;;;;8.20;54.50;;;;;;4963272;28;20019;-83
2021/03/04 09:26:54;;;;;;;19.33;7.27;;;8.30;54.40;;;;;;4965452;28;19909;-83
2021/03/04 09:29:20;;;;;;;14.17;7.67;;;8.30;54.20;;;;;;4981790;28;20732;-82
2021/03/04 09:31:53;;;;;;;22.57;7.20;;;8.40;54.10;;;;;;4961167;28;20035;-83
2021/03/04 09:34:42;;;;;;;26.90;7.70;;;8.40;53.90;;;;;;4963903;28;22175;-83
2021/03/04 09:37:25;;;;;;;16.63;6.83;;;8.40;53.90;;;;;;4970284;28;20026;-82
2021/03/04 09:39:53;;;;;;;15.23;6.93;;;8.40;53.70;;;;;;4969602;28;20027;-82
2021/03/04 09:42:31;;;;;;;23.03;6.13;;;8.50;53.70;;;;;;4951958;28;20406;-82
2021/03/04 09:45:00;;;;;;;13.43;6.27;;;8.50;53.60;;;;;;4952477;28;20094;-82
2021/03/04 09:47:30;;;;;;;16.07;5.77;;;8.60;53.40;;;;;;4979609;28;20722;-82
2021/03/04 09:49:57;;;;;;;16.93;7.67;;;8.60;53.20;;;;;;4963189;28;20015;-82
2021/03/04 09:52:30;;;;;;;18.93;5.90;;;8.70;53.10;;;;;;4979405;28;20149;-83
2021/03/04 09:55:10;;;;;;;21.00;5.43;;;8.70;52.90;;;;;;4962207;28;20031;-83
2021/03/04 09:57:43;;;;;;;10.37;4.77;;;8.80;52.50;;;;;;4981687;28;20022;-83
2021/03/04 10:00:16;;;;;;;10.83;4.73;;;8.90;52.20;;;;;;4949795;28;20027;-83
2021/03/04 10:02:44;;;;;;;18.08;5.72;;;8.90;52.00;;;;;;4979096;28;20019;-83
2021/03/04 10:05:21;;;;;;;16.07;5.23;;;9.00;52.00;;;;;;4979959;28;20019;-83
2021/03/04 10:07:48;;;;;;;14.43;5.90;;;9.00;52.00;;;;;;4990813;28;20494;-83
2021/03/04 10:10:19;;;;;;;13.27;4.97;;;9.10;51.80;;;;;;4982857;28;20022;-83
2021/03/04 10:12:50;;;;;;;14.27;4.60;;;9.20;51.50;;;;;;4960370;28;20113;-83
2021/03/04 10:15:35;;;;;;;14.03;5.10;;;9.10;51.50;;;;;;4977542;28;20058;-83
2021/03/04 10:18:12;;;;;;;23.33;5.87;;;9.20;51.40;;;;;;4977124;28;20026;-83
2021/03/04 10:20:41;;;;;;;14.77;5.97;;;9.20;51.20;;;;;;4980968;28;20626;-85
2021/03/04 10:23:08;;;;;;;17.83;5.63;;;9.30;51.10;;;;;;4964231;28;20418;-83
2021/03/04 10:25:34;;;;;;;19.37;7.10;;;9.30;51.10;;;;;;4969216;28;20038;-84
2021/03/04 10:28:02;;;;;;;15.17;5.37;;;9.30;51.00;;;;;;4990086;28;20033;-84
2021/03/04 10:30:29;;;;;;;20.50;5.73;;;9.40;50.90;;;;;;4959959;28;20424;-84
2021/03/04 10:32:55;;;;;;;18.37;5.33;;;9.50;51.00;;;;;;4957226;28;20052;-84
2021/03/04 10:35:21;;;;;;;25.10;6.43;;;9.60;50.80;;;;;;4961305;28;20028;-84
2021/03/04 10:37:47;;;;;;;23.97;6.63;;;9.60;50.70;;;;;;4964285;28;20038;-83
2021/03/04 10:40:15;;;;;;;15.17;5.73;;;9.70;50.60;;;;;;4958744;28;20497;-83
2021/03/04 10:42:41;;;;;;;18.93;5.83;;;9.70;50.60;;;;;;4952770;28;20019;-83
2021/03/04 10:45:11;;;;;;;19.80;5.73;;;9.70;50.70;;;;;;4982761;28;20477;-83
2021/03/04 10:47:37;;;;;;;17.00;5.53;;;9.70;50.60;;;;;;4973922;28;20074;-83
2021/03/04 10:50:04;;;;;;;18.10;6.47;;;9.70;50.60;;;;;;4961547;28;20057;-83
2021/03/04 10:52:30;;;;;;;19.00;6.47;;;9.70;50.60;;;;;;4960346;28;20117;-83
2021/03/04 10:54:56;;;;;;;19.07;6.83;;;9.70;50.60;;;;;;4979429;28;20462;-83
2021/03/04 10:57:22;;;;;;;21.87;5.90;;;9.80;50.50;;;;;;4960089;28;20506;-83
2021/03/04 10:59:49;;;;;;;20.50;8.80;;;9.80;50.50;;;;;;4953024;28;20023;-83
2021/03/04 11:02:15;;;;;;;23.33;7.60;;;9.90;50.40;;;;;;4954717;28;20054;-83
2021/03/04 11:04:41;;;;;;;16.87;7.10;;;10.00;50.50;;;;;;4991264;28;20038;-83
2021/03/04 11:07:07;;;;;;;20.97;6.00;;;10.00;50.50;;;;;;4956138;28;20089;-83
2021/03/04 11:09:33;;;;;;;22.03;7.27;;;10.10;50.50;;;;;;4959739;28;20390;-83
2021/03/04 11:11:59;;;;;;;14.77;6.13;;;10.10;50.50;;;;;;4977913;28;20191;-83
2021/03/04 11:14:24;;;;;;;33.47;6.97;;;10.20;50.50;;;;;;4991399;28;20071;-84
2021/03/04 11:16:50;;;;;;;17.83;6.00;;;10.20;50.30;;;;;;4987491;28;20041;-83
2021/03/04 11:19:16;;;;;;;19.57;6.83;;;10.20;50.20;;;;;;4999578;28;20382;-83
2021/03/04 11:21:43;;;;;;;27.27;6.93;;;10.30;50.20;;;;;;4975570;28;20031;-83
2021/03/04 11:24:09;;;;;;;19.33;6.60;;;10.30;50.20;;;;;;5000661;28;20088;-83
2021/03/04 11:26:38;;;;;;;14.97;6.57;;;10.40;50.20;;;;;;4979519;28;20052;-83
2021/03/04 11:29:08;;;;;;;18.53;6.40;;;10.40;50.00;;;;;;4983156;28;20026;-83
2021/03/04 11:31:35;;;;;;;22.67;6.80;;;10.50;49.90;;;;;;4970472;28;20045;-84
2021/03/04 11:34:01;;;;;;;13.00;6.23;;;10.50;49.80;;;;;;4982121;28;20045;-84
2021/03/04 11:36:28;;;;;;;14.40;6.60;;;10.60;49.80;;;;;;5013410;28;20034;-84
2021/03/04 11:38:54;;;;;;;17.93;6.43;;;10.60;49.70;;;;;;4993509;28;20038;-84
2021/03/04 11:41:21;;;;;;;15.90;6.73;;;10.70;49.50;;;;;;4977292;28;20069;-84
2021/03/04 11:43:46;;;;;;;19.63;6.10;;;10.70;49.30;;;;;;4995014;28;20116;-83
2021/03/04 11:46:12;;;;;;;19.87;7.47;;;10.80;49.20;;;;;;5000070;28;20052;-83
2021/03/04 11:48:38;;;;;;;20.80;6.27;;;10.80;49.10;;;;;;4989888;28;20030;-83
2021/03/04 11:51:05;;;;;;;22.67;7.83;;;10.80;49.00;;;;;;4984989;28;20030;-83
2021/03/04 11:53:31;;;;;;;22.07;7.23;;;10.80;49.00;;;;;;4978642;28;20065;-83
2021/03/04 11:55:57;;;;;;;27.53;6.60;;;10.90;48.90;;;;;;4969531;28;20072;-82
2021/03/04 11:58:23;;;;;;;13.17;6.57;;;10.90;48.90;;;;;;4985704;28;20038;-82
2021/03/04 12:00:49;;;;;;;16.67;6.83;;;10.90;48.90;;;;;;4998905;28;20045;-82
2021/03/04 12:03:14;;;;;;;18.30;6.00;;;10.90;48.90;;;;;;5012156;28;20030;-82
2021/03/04 12:05:40;;;;;;;25.23;7.10;;;11.00;49.00;;;;;;4996299;28;20023;-82
2021/03/04 12:08:06;;;;;;;22.30;6.63;;;11.00;49.00;;;;;;5007363;28;20057;-82
2021/03/04 12:10:32;;;;;;;16.63;5.80;;;11.00;49.40;;;;;;5001427;28;20034;-82
2021/03/04 12:12:57;;;;;;;18.37;5.93;;;11.00;48.80;;;;;;4987280;28;20038;-82
2021/03/04 12:15:24;;;;;;;23.17;10.97;;;11.10;48.70;;;;;;4964878;28;20045;-82
2021/03/04 12:17:49;;;;;;;85.03;37.80;;;11.10;48.60;;;;;;4986650;28;20597;-82
2021/03/04 12:20:15;;;;;;;42.53;24.37;;;11.20;48.50;;;;;;4971725;28;20030;-82
2021/03/04 12:22:41;;;;;;;25.43;14.33;;;11.20;48.30;;;;;;4979635;28;20061;-82
2021/03/04 12:25:08;;;;;;;15.37;8.97;;;11.30;48.10;;;;;;4972120;28;20123;-82
2021/03/04 12:27:34;;;;;;;13.30;6.83;;;11.30;47.90;;;;;;4964394;28;20500;-82
2021/03/04 12:30:00;;;;;;;15.60;6.50;;;11.30;47.70;;;;;;4959056;28;20031;-82
2021/03/04 12:32:26;;;;;;;31.73;7.20;;;11.30;47.50;;;;;;4957845;28;20172;-82
2021/03/04 12:34:51;;;;;;;31.53;6.30;;;11.30;47.40;;;;;;4955099;28;20114;-83
2021/03/04 12:37:17;;;;;;;22.50;5.33;;;11.40;47.20;;;;;;4952470;28;20050;-82
2021/03/04 12:39:43;;;;;;;19.10;5.20;;;11.40;47.10;;;;;;4960454;28;20505;-82
2021/03/04 12:42:10;;;;;;;13.00;4.50;;;11.50;46.70;;;;;;4967075;28;20035;-82
2021/03/04 12:44:36;;;;;;;15.10;3.77;;;11.60;46.50;;;;;;4987429;28;20019;-82
2021/03/04 12:47:02;;;;;;;8.80;4.40;;;11.70;46.30;;;;;;4968767;28;20136;-82
2021/03/04 12:49:28;;;;;;;11.07;4.20;;;11.70;46.10;;;;;;4973678;28;20027;-82
2021/03/04 12:51:54;;;;;;;12.43;4.30;;;11.70;45.80;;;;;;4954671;28;20031;-82
2021/03/04 12:54:19;;;;;;;13.67;5.03;;;11.80;45.50;;;;;;4964673;28;20062;-82
2021/03/04 12:56:45;;;;;;;13.77;5.50;;;11.80;45.50;;;;;;4957870;28;20104;-82